sensor_id;sensor_type;location;lat;lon;timestamp;P1;durP1;ratioP1;P2;durP2;ratioP2
4508;SDS011;2267;48.816;9.230;2022-10-31T00:01:46;15.60;;;12.03;;
4508;SDS011;2267;48.816;9.230;2022-10-31T00:04:13;18.30;;;12.30;;
4508;SDS011;2267;48.816;9.230;2022-10-31T00:06:40;13.40;;;10.97;;
4508;SDS011;2267;48.816;9.230;2022-10-31T00:09:06;14.30;;;11.20;;
4508;SDS011;2267;48.816;9.230;2022-10-31T00:11:35;15.27;;;10.83;;
4508;SDS011;2267;48.816;9.230;2022-10-31T00:14:02;13.60;;;11.23;;
4508;SDS011;2267;48.816;9.230;2022-10-31T00:16:29;17.67;;;10.83;;
4508;SDS011;2267;48.816;9.230;2022-10-31T00:18:58;13.10;;;9.67;;
4508;SDS011;2267;48.816;9.230;2022-10-31T00:21:26;15.03;;;10.20;;
4508;SDS011;2267;48.816;9.230;2022-10-31T00:23:53;14.33;;;10.57;;
4508;SDS011;2267;48.816;9.230;2022-10-31T00:26:20;15.43;;;11.80;;
4508;SDS011;2267;48.816;9.230;2022-10-31T00:28:47;16.10;;;10.47;;
4508;SDS011;2267;48.816;9.230;2022-10-31T00:31:14;12.87;;;10.40;;
4508;SDS011;2267;48.816;9.230;2022-10-31T00:33:41;13.27;;;10.10;;
4508;SDS011;2267;48.816;9.230;2022-10-31T00:36:10;14.23;;;10.33;;
4508;SDS011;2267;48.816;9.230;2022-10-31T00:38:39;13.67;;;10.50;;
4508;SDS011;2267;48.816;9.230;2022-10-31T00:41:06;11.40;;;10.27;;
4508;SDS011;2267;48.816;9.230;2022-10-31T00:43:33;14.93;;;10.57;;
4508;SDS011;2267;48.816;9.230;2022-10-31T00:46:00;18.83;;;10.47;;
4508;SDS011;2267;48.816;9.230;2022-10-31T00:48:28;15.70;;;11.00;;
4508;SDS011;2267;48.816;9.230;2022-10-31T00:50:55;11.40;;;9.00;;
4508;SDS011;2267;48.816;9.230;2022-10-31T00:53:22;11.03;;;9.93;;
4508;SDS011;2267;48.816;9.230;2022-10-31T00:55:49;13.20;;;10.40;;
4508;SDS011;2267;48.816;9.230;2022-10-31T00:58:16;12.77;;;9.87;;
4508;SDS011;2267;48.816;9.230;2022-10-31T01:00:42;14.50;;;10.20;;
4508;SDS011;2267;48.816;9.230;2022-10-31T01:03:14;9.77;;;8.77;;
4508;SDS011;2267;48.816;9.230;2022-10-31T01:05:41;11.63;;;10.50;;
4508;SDS011;2267;48.816;9.230;2022-10-31T01:08:08;12.23;;;10.07;;
4508;SDS011;2267;48.816;9.230;2022-10-31T01:10:34;12.60;;;9.00;;
4508;SDS011;2267;48.816;9.230;2022-10-31T01:13:01;14.27;;;9.90;;
4508;SDS011;2267;48.816;9.230;2022-10-31T01:15:28;16.33;;;10.73;;
4508;SDS011;2267;48.816;9.230;2022-10-31T01:17:55;10.40;;;9.40;;
4508;SDS011;2267;48.816;9.230;2022-10-31T01:20:22;13.60;;;10.27;;
4508;SDS011;2267;48.816;9.230;2022-10-31T01:22:48;13.77;;;10.40;;
4508;SDS011;2267;48.816;9.230;2022-10-31T01:25:15;13.20;;;10.33;;
4508;SDS011;2267;48.816;9.230;2022-10-31T01:27:42;11.17;;;10.03;;
4508;SDS011;2267;48.816;9.230;2022-10-31T01:30:09;15.73;;;10.80;;
4508;SDS011;2267;48.816;9.230;2022-10-31T01:32:36;10.27;;;9.23;;
4508;SDS011;2267;48.816;9.230;2022-10-31T01:35:03;11.30;;;9.60;;
4508;SDS011;2267;48.816;9.230;2022-10-31T01:37:30;11.63;;;9.97;;
4508;SDS011;2267;48.816;9.230;2022-10-31T01:39:57;10.43;;;9.23;;
4508;SDS011;2267;48.816;9.230;2022-10-31T01:42:23;10.97;;;9.10;;
4508;SDS011;2267;48.816;9.230;2022-10-31T01:44:52;12.07;;;10.10;;
4508;SDS011;2267;48.816;9.230;2022-10-31T01:47:24;9.73;;;8.73;;
4508;SDS011;2267;48.816;9.230;2022-10-31T01:50:05;11.00;;;8.83;;
4508;SDS011;2267;48.816;9.230;2022-10-31T01:52:38;11.30;;;9.70;;
4508;SDS011;2267;48.816;9.230;2022-10-31T01:55:13;11.80;;;9.93;;
4508;SDS011;2267;48.816;9.230;2022-10-31T01:57:45;10.67;;;9.57;;
4508;SDS011;2267;48.816;9.230;2022-10-31T02:00:14;12.97;;;10.20;;
4508;SDS011;2267;48.816;9.230;2022-10-31T02:02:42;15.60;;;9.70;;
4508;SDS011;2267;48.816;9.230;2022-10-31T02:05:12;10.43;;;9.43;;
4508;SDS011;2267;48.816;9.230;2022-10-31T02:07:45;12.57;;;9.47;;
4508;SDS011;2267;48.816;9.230;2022-10-31T02:10:21;12.20;;;9.43;;
4508;SDS011;2267;48.816;9.230;2022-10-31T02:12:52;10.57;;;9.20;;
4508;SDS011;2267;48.816;9.230;2022-10-31T02:15:23;9.70;;;8.40;;
4508;SDS011;2267;48.816;9.230;2022-10-31T02:17:50;10.03;;;8.10;;
4508;SDS011;2267;48.816;9.230;2022-10-31T02:20:19;10.87;;;9.30;;
4508;SDS011;2267;48.816;9.230;2022-10-31T02:26:02;9.97;;;8.60;;
4508;SDS011;2267;48.816;9.230;2022-10-31T02:31:58;12.97;;;9.33;;
4508;SDS011;2267;48.816;9.230;2022-10-31T02:34:33;9.80;;;8.60;;
4508;SDS011;2267;48.816;9.230;2022-10-31T02:37:17;11.47;;;8.17;;
4508;SDS011;2267;48.816;9.230;2022-10-31T02:40:14;12.37;;;9.43;;
4508;SDS011;2267;48.816;9.230;2022-10-31T02:42:46;11.97;;;9.63;;
4508;SDS011;2267;48.816;9.230;2022-10-31T02:45:29;11.20;;;8.97;;
4508;SDS011;2267;48.816;9.230;2022-10-31T02:48:03;10.87;;;9.70;;
4508;SDS011;2267;48.816;9.230;2022-10-31T02:50:39;10.90;;;9.63;;
4508;SDS011;2267;48.816;9.230;2022-10-31T02:53:09;10.47;;;9.40;;
4508;SDS011;2267;48.816;9.230;2022-10-31T02:55:44;14.43;;;9.97;;
4508;SDS011;2267;48.816;9.230;2022-10-31T02:58:14;10.53;;;9.30;;
4508;SDS011;2267;48.816;9.230;2022-10-31T03:03:19;12.50;;;9.93;;
4508;SDS011;2267;48.816;9.230;2022-10-31T03:06:09;11.13;;;9.63;;
4508;SDS011;2267;48.816;9.230;2022-10-31T03:08:45;11.93;;;10.03;;
4508;SDS011;2267;48.816;9.230;2022-10-31T03:11:14;12.77;;;10.80;;
4508;SDS011;2267;48.816;9.230;2022-10-31T03:13:46;11.80;;;9.20;;
4508;SDS011;2267;48.816;9.230;2022-10-31T03:16:24;11.90;;;9.53;;
4508;SDS011;2267;48.816;9.230;2022-10-31T03:21:46;17.87;;;11.23;;
4508;SDS011;2267;48.816;9.230;2022-10-31T03:24:17;12.63;;;10.60;;
4508;SDS011;2267;48.816;9.230;2022-10-31T03:26:48;15.60;;;9.87;;
4508;SDS011;2267;48.816;9.230;2022-10-31T03:29:20;14.90;;;9.80;;
4508;SDS011;2267;48.816;9.230;2022-10-31T03:31:50;10.73;;;9.60;;
4508;SDS011;2267;48.816;9.230;2022-10-31T03:34:21;14.90;;;10.30;;
4508;SDS011;2267;48.816;9.230;2022-10-31T03:36:49;12.80;;;9.37;;
4508;SDS011;2267;48.816;9.230;2022-10-31T03:39:18;10.63;;;9.43;;
4508;SDS011;2267;48.816;9.230;2022-10-31T03:41:50;12.47;;;9.30;;
4508;SDS011;2267;48.816;9.230;2022-10-31T03:44:47;13.70;;;9.97;;
4508;SDS011;2267;48.816;9.230;2022-10-31T03:47:23;11.77;;;9.60;;
4508;SDS011;2267;48.816;9.230;2022-10-31T03:49:51;11.23;;;8.73;;
4508;SDS011;2267;48.816;9.230;2022-10-31T03:54:58;14.63;;;10.23;;
4508;SDS011;2267;48.816;9.230;2022-10-31T04:00:41;11.90;;;9.70;;
4508;SDS011;2267;48.816;9.230;2022-10-31T04:03:11;11.87;;;9.30;;
4508;SDS011;2267;48.816;9.230;2022-10-31T04:05:42;12.93;;;9.40;;
4508;SDS011;2267;48.816;9.230;2022-10-31T04:08:12;9.37;;;8.43;;
4508;SDS011;2267;48.816;9.230;2022-10-31T04:10:43;12.17;;;10.13;;
4508;SDS011;2267;48.816;9.230;2022-10-31T04:13:14;12.40;;;9.00;;
4508;SDS011;2267;48.816;9.230;2022-10-31T04:15:50;12.07;;;9.20;;
4508;SDS011;2267;48.816;9.230;2022-10-31T04:18:19;11.67;;;9.37;;
4508;SDS011;2267;48.816;9.230;2022-10-31T04:20:48;10.00;;;9.00;;
4508;SDS011;2267;48.816;9.230;2022-10-31T04:23:19;11.00;;;9.20;;
4508;SDS011;2267;48.816;9.230;2022-10-31T04:25:49;16.57;;;10.60;;
4508;SDS011;2267;48.816;9.230;2022-10-31T04:28:15;11.77;;;9.40;;
4508;SDS011;2267;48.816;9.230;2022-10-31T04:30:45;14.70;;;9.07;;
4508;SDS011;2267;48.816;9.230;2022-10-31T04:33:12;12.70;;;10.30;;
4508;SDS011;2267;48.816;9.230;2022-10-31T04:35:39;10.83;;;9.63;;
4508;SDS011;2267;48.816;9.230;2022-10-31T04:38:06;10.60;;;8.67;;
4508;SDS011;2267;48.816;9.230;2022-10-31T04:40:32;10.30;;;8.50;;
4508;SDS011;2267;48.816;9.230;2022-10-31T04:42:59;11.50;;;10.30;;
4508;SDS011;2267;48.816;9.230;2022-10-31T04:45:26;13.83;;;9.67;;
4508;SDS011;2267;48.816;9.230;2022-10-31T04:47:53;13.27;;;9.83;;
4508;SDS011;2267;48.816;9.230;2022-10-31T04:50:20;12.90;;;9.93;;
4508;SDS011;2267;48.816;9.230;2022-10-31T04:52:47;11.07;;;9.30;;
4508;SDS011;2267;48.816;9.230;2022-10-31T04:55:14;11.20;;;9.63;;
4508;SDS011;2267;48.816;9.230;2022-10-31T04:57:45;10.47;;;9.37;;
4508;SDS011;2267;48.816;9.230;2022-10-31T05:00:14;9.00;;;8.17;;
4508;SDS011;2267;48.816;9.230;2022-10-31T05:02:47;10.13;;;9.20;;
4508;SDS011;2267;48.816;9.230;2022-10-31T05:05:16;11.47;;;9.23;;
4508;SDS011;2267;48.816;9.230;2022-10-31T05:07:46;9.27;;;8.10;;
4508;SDS011;2267;48.816;9.230;2022-10-31T05:10:14;12.60;;;9.43;;
4508;SDS011;2267;48.816;9.230;2022-10-31T05:12:47;14.10;;;9.30;;
4508;SDS011;2267;48.816;9.230;2022-10-31T05:15:15;10.33;;;8.57;;
4508;SDS011;2267;48.816;9.230;2022-10-31T05:17:43;10.10;;;9.13;;
4508;SDS011;2267;48.816;9.230;2022-10-31T05:20:10;11.40;;;9.17;;
4508;SDS011;2267;48.816;9.230;2022-10-31T05:22:45;11.83;;;8.70;;
4508;SDS011;2267;48.816;9.230;2022-10-31T05:25:13;9.87;;;8.63;;
4508;SDS011;2267;48.816;9.230;2022-10-31T05:27:44;9.33;;;8.20;;
4508;SDS011;2267;48.816;9.230;2022-10-31T05:30:13;12.70;;;8.43;;
4508;SDS011;2267;48.816;9.230;2022-10-31T05:32:43;9.43;;;8.53;;
4508;SDS011;2267;48.816;9.230;2022-10-31T05:35:12;15.70;;;9.30;;
4508;SDS011;2267;48.816;9.230;2022-10-31T05:37:41;10.30;;;9.23;;
4508;SDS011;2267;48.816;9.230;2022-10-31T05:40:10;14.00;;;8.90;;
4508;SDS011;2267;48.816;9.230;2022-10-31T05:42:39;10.40;;;9.30;;
4508;SDS011;2267;48.816;9.230;2022-10-31T05:45:07;11.40;;;9.13;;
4508;SDS011;2267;48.816;9.230;2022-10-31T05:47:38;12.80;;;9.70;;
4508;SDS011;2267;48.816;9.230;2022-10-31T05:50:06;10.03;;;8.30;;
4508;SDS011;2267;48.816;9.230;2022-10-31T05:52:33;10.60;;;8.57;;
4508;SDS011;2267;48.816;9.230;2022-10-31T05:55:00;11.17;;;8.30;;
4508;SDS011;2267;48.816;9.230;2022-10-31T05:57:28;11.70;;;9.80;;
4508;SDS011;2267;48.816;9.230;2022-10-31T05:59:55;11.90;;;8.87;;
4508;SDS011;2267;48.816;9.230;2022-10-31T06:02:22;11.87;;;9.60;;
4508;SDS011;2267;48.816;9.230;2022-10-31T06:04:48;11.90;;;9.07;;
4508;SDS011;2267;48.816;9.230;2022-10-31T06:07:15;12.73;;;9.70;;
4508;SDS011;2267;48.816;9.230;2022-10-31T06:09:42;8.10;;;7.30;;
4508;SDS011;2267;48.816;9.230;2022-10-31T06:12:09;12.10;;;8.07;;
4508;SDS011;2267;48.816;9.230;2022-10-31T06:14:35;9.33;;;7.90;;
4508;SDS011;2267;48.816;9.230;2022-10-31T06:17:02;10.10;;;8.47;;
4508;SDS011;2267;48.816;9.230;2022-10-31T06:19:29;14.30;;;8.43;;
4508;SDS011;2267;48.816;9.230;2022-10-31T06:21:55;11.67;;;8.87;;
4508;SDS011;2267;48.816;9.230;2022-10-31T06:24:22;13.30;;;8.73;;
4508;SDS011;2267;48.816;9.230;2022-10-31T06:26:49;14.80;;;9.27;;
4508;SDS011;2267;48.816;9.230;2022-10-31T06:29:16;11.17;;;8.90;;
4508;SDS011;2267;48.816;9.230;2022-10-31T06:31:42;13.87;;;9.60;;
4508;SDS011;2267;48.816;9.230;2022-10-31T06:34:09;13.10;;;9.07;;
4508;SDS011;2267;48.816;9.230;2022-10-31T06:36:36;10.37;;;8.90;;
4508;SDS011;2267;48.816;9.230;2022-10-31T06:39:02;10.23;;;8.47;;
4508;SDS011;2267;48.816;9.230;2022-10-31T06:41:29;15.13;;;8.97;;
4508;SDS011;2267;48.816;9.230;2022-10-31T06:43:56;10.40;;;8.60;;
4508;SDS011;2267;48.816;9.230;2022-10-31T06:46:23;14.50;;;9.60;;
4508;SDS011;2267;48.816;9.230;2022-10-31T06:48:49;11.77;;;9.00;;
4508;SDS011;2267;48.816;9.230;2022-10-31T06:51:16;12.13;;;8.87;;
4508;SDS011;2267;48.816;9.230;2022-10-31T06:53:43;12.10;;;8.63;;
4508;SDS011;2267;48.816;9.230;2022-10-31T06:56:10;10.27;;;8.87;;
4508;SDS011;2267;48.816;9.230;2022-10-31T06:58:36;14.63;;;9.40;;
4508;SDS011;2267;48.816;9.230;2022-10-31T07:01:03;14.37;;;10.20;;
4508;SDS011;2267;48.816;9.230;2022-10-31T07:03:30;12.33;;;8.33;;
4508;SDS011;2267;48.816;9.230;2022-10-31T07:05:57;16.77;;;9.67;;
4508;SDS011;2267;48.816;9.230;2022-10-31T07:08:24;10.57;;;9.47;;
4508;SDS011;2267;48.816;9.230;2022-10-31T07:10:52;13.33;;;10.27;;
4508;SDS011;2267;48.816;9.230;2022-10-31T07:13:20;11.27;;;8.73;;
4508;SDS011;2267;48.816;9.230;2022-10-31T07:15:52;10.10;;;8.63;;
4508;SDS011;2267;48.816;9.230;2022-10-31T07:18:20;14.43;;;8.87;;
4508;SDS011;2267;48.816;9.230;2022-10-31T07:20:48;9.97;;;8.97;;
4508;SDS011;2267;48.816;9.230;2022-10-31T07:23:14;12.27;;;9.07;;
4508;SDS011;2267;48.816;9.230;2022-10-31T07:25:41;14.63;;;9.53;;
4508;SDS011;2267;48.816;9.230;2022-10-31T07:28:08;12.27;;;8.90;;
4508;SDS011;2267;48.816;9.230;2022-10-31T07:30:36;8.10;;;7.33;;
4508;SDS011;2267;48.816;9.230;2022-10-31T07:33:04;9.30;;;7.90;;
4508;SDS011;2267;48.816;9.230;2022-10-31T07:35:31;9.50;;;8.00;;
4508;SDS011;2267;48.816;9.230;2022-10-31T07:38:06;10.13;;;8.20;;
4508;SDS011;2267;48.816;9.230;2022-10-31T07:40:34;10.00;;;8.63;;
4508;SDS011;2267;48.816;9.230;2022-10-31T07:43:01;11.33;;;8.03;;
4508;SDS011;2267;48.816;9.230;2022-10-31T07:45:28;8.63;;;7.53;;
4508;SDS011;2267;48.816;9.230;2022-10-31T07:47:55;10.07;;;7.83;;
4508;SDS011;2267;48.816;9.230;2022-10-31T07:50:23;10.10;;;7.97;;
4508;SDS011;2267;48.816;9.230;2022-10-31T07:52:58;12.57;;;8.77;;
4508;SDS011;2267;48.816;9.230;2022-10-31T07:55:26;14.60;;;7.87;;
4508;SDS011;2267;48.816;9.230;2022-10-31T07:57:58;11.30;;;8.90;;
4508;SDS011;2267;48.816;9.230;2022-10-31T08:00:26;10.33;;;7.50;;
4508;SDS011;2267;48.816;9.230;2022-10-31T08:03:13;11.10;;;8.73;;
4508;SDS011;2267;48.816;9.230;2022-10-31T08:05:41;11.03;;;7.43;;
4508;SDS011;2267;48.816;9.230;2022-10-31T08:08:10;12.50;;;7.50;;
4508;SDS011;2267;48.816;9.230;2022-10-31T08:10:38;9.27;;;8.40;;
4508;SDS011;2267;48.816;9.230;2022-10-31T08:13:10;8.20;;;7.40;;
4508;SDS011;2267;48.816;9.230;2022-10-31T08:15:38;10.70;;;9.10;;
4508;SDS011;2267;48.816;9.230;2022-10-31T08:18:11;10.53;;;7.80;;
4508;SDS011;2267;48.816;9.230;2022-10-31T08:20:39;9.40;;;8.10;;
4508;SDS011;2267;48.816;9.230;2022-10-31T08:23:06;10.80;;;7.90;;
4508;SDS011;2267;48.816;9.230;2022-10-31T08:25:34;10.10;;;8.80;;
4508;SDS011;2267;48.816;9.230;2022-10-31T08:28:05;9.57;;;8.00;;
4508;SDS011;2267;48.816;9.230;2022-10-31T08:30:34;15.23;;;9.33;;
4508;SDS011;2267;48.816;9.230;2022-10-31T08:33:08;14.83;;;8.50;;
4508;SDS011;2267;48.816;9.230;2022-10-31T08:35:37;11.50;;;8.73;;
4508;SDS011;2267;48.816;9.230;2022-10-31T08:38:04;9.53;;;8.40;;
4508;SDS011;2267;48.816;9.230;2022-10-31T08:40:31;9.77;;;8.43;;
4508;SDS011;2267;48.816;9.230;2022-10-31T08:42:59;10.87;;;8.30;;
4508;SDS011;2267;48.816;9.230;2022-10-31T08:45:31;10.27;;;7.20;;
4508;SDS011;2267;48.816;9.230;2022-10-31T08:47:59;10.20;;;8.63;;
4508;SDS011;2267;48.816;9.230;2022-10-31T08:50:29;9.77;;;8.30;;
4508;SDS011;2267;48.816;9.230;2022-10-31T08:53:05;10.10;;;8.10;;
4508;SDS011;2267;48.816;9.230;2022-10-31T08:55:34;8.30;;;7.33;;
4508;SDS011;2267;48.816;9.230;2022-10-31T08:58:02;12.97;;;8.17;;
4508;SDS011;2267;48.816;9.230;2022-10-31T09:00:30;9.20;;;7.20;;
4508;SDS011;2267;48.816;9.230;2022-10-31T09:02:58;7.70;;;6.80;;
4508;SDS011;2267;48.816;9.230;2022-10-31T09:05:27;13.13;;;8.53;;
4508;SDS011;2267;48.816;9.230;2022-10-31T09:07:57;12.23;;;8.30;;
4508;SDS011;2267;48.816;9.230;2022-10-31T09:10:25;10.63;;;7.63;;
4508;SDS011;2267;48.816;9.230;2022-10-31T09:12:59;8.23;;;7.53;;
4508;SDS011;2267;48.816;9.230;2022-10-31T09:15:27;12.83;;;7.97;;
4508;SDS011;2267;48.816;9.230;2022-10-31T09:17:54;10.60;;;8.07;;
4508;SDS011;2267;48.816;9.230;2022-10-31T09:20:21;9.60;;;8.60;;
4508;SDS011;2267;48.816;9.230;2022-10-31T09:22:54;13.27;;;7.80;;
4508;SDS011;2267;48.816;9.230;2022-10-31T09:25:26;9.07;;;7.50;;
4508;SDS011;2267;48.816;9.230;2022-10-31T09:27:57;8.70;;;7.90;;
4508;SDS011;2267;48.816;9.230;2022-10-31T09:30:26;9.93;;;8.90;;
4508;SDS011;2267;48.816;9.230;2022-10-31T09:32:55;12.03;;;7.57;;
4508;SDS011;2267;48.816;9.230;2022-10-31T09:35:27;13.00;;;7.97;;
4508;SDS011;2267;48.816;9.230;2022-10-31T09:38:10;9.47;;;8.37;;
4508;SDS011;2267;48.816;9.230;2022-10-31T09:40:47;11.60;;;7.63;;
4508;SDS011;2267;48.816;9.230;2022-10-31T09:52:35;10.03;;;8.33;;
4508;SDS011;2267;48.816;9.230;2022-10-31T09:55:17;9.10;;;7.10;;
4508;SDS011;2267;48.816;9.230;2022-10-31T09:57:47;8.03;;;7.23;;
4508;SDS011;2267;48.816;9.230;2022-10-31T10:00:18;10.60;;;8.30;;
4508;SDS011;2267;48.816;9.230;2022-10-31T10:02:49;10.37;;;9.00;;
4508;SDS011;2267;48.816;9.230;2022-10-31T10:08:29;13.77;;;9.07;;
4508;SDS011;2267;48.816;9.230;2022-10-31T10:25:20;11.93;;;8.20;;
4508;SDS011;2267;48.816;9.230;2022-10-31T10:30:55;13.67;;;7.90;;
4508;SDS011;2267;48.816;9.230;2022-10-31T10:33:33;10.47;;;8.20;;
4508;SDS011;2267;48.816;9.230;2022-10-31T10:36:05;10.00;;;8.30;;
4508;SDS011;2267;48.816;9.230;2022-10-31T10:38:53;9.40;;;7.93;;
4508;SDS011;2267;48.816;9.230;2022-10-31T10:41:32;9.20;;;7.60;;
4508;SDS011;2267;48.816;9.230;2022-10-31T10:44:00;10.97;;;6.90;;
4508;SDS011;2267;48.816;9.230;2022-10-31T10:49:50;7.73;;;7.00;;
4508;SDS011;2267;48.816;9.230;2022-10-31T11:02:51;8.43;;;7.30;;
4508;SDS011;2267;48.816;9.230;2022-10-31T11:07:51;15.70;;;8.47;;
4508;SDS011;2267;48.816;9.230;2022-10-31T11:10:18;8.00;;;7.10;;
4508;SDS011;2267;48.816;9.230;2022-10-31T11:12:56;10.27;;;6.90;;
4508;SDS011;2267;48.816;9.230;2022-10-31T11:18:37;8.87;;;7.97;;
4508;SDS011;2267;48.816;9.230;2022-10-31T11:21:20;11.50;;;7.90;;
4508;SDS011;2267;48.816;9.230;2022-10-31T11:24:02;10.30;;;8.00;;
4508;SDS011;2267;48.816;9.230;2022-10-31T11:26:34;11.27;;;8.00;;
4508;SDS011;2267;48.816;9.230;2022-10-31T11:29:09;9.73;;;7.50;;
4508;SDS011;2267;48.816;9.230;2022-10-31T11:31:49;7.57;;;6.30;;
4508;SDS011;2267;48.816;9.230;2022-10-31T11:34:42;10.33;;;7.63;;
4508;SDS011;2267;48.816;9.230;2022-10-31T11:37:15;7.90;;;7.17;;
4508;SDS011;2267;48.816;9.230;2022-10-31T11:39:45;7.73;;;6.43;;
4508;SDS011;2267;48.816;9.230;2022-10-31T11:42:23;11.60;;;6.90;;
4508;SDS011;2267;48.816;9.230;2022-10-31T11:44:56;11.67;;;6.87;;
4508;SDS011;2267;48.816;9.230;2022-10-31T11:47:25;9.40;;;7.57;;
4508;SDS011;2267;48.816;9.230;2022-10-31T11:49:54;7.30;;;6.13;;
4508;SDS011;2267;48.816;9.230;2022-10-31T11:52:24;12.40;;;7.23;;
4508;SDS011;2267;48.816;9.230;2022-10-31T11:55:00;9.77;;;6.47;;
4508;SDS011;2267;48.816;9.230;2022-10-31T11:57:46;9.23;;;8.23;;
4508;SDS011;2267;48.816;9.230;2022-10-31T12:02:50;9.30;;;7.90;;
4508;SDS011;2267;48.816;9.230;2022-10-31T12:05:30;8.40;;;7.30;;
4508;SDS011;2267;48.816;9.230;2022-10-31T12:07:59;9.47;;;7.57;;
4508;SDS011;2267;48.816;9.230;2022-10-31T12:10:31;8.90;;;7.17;;
4508;SDS011;2267;48.816;9.230;2022-10-31T12:13:17;7.30;;;5.70;;
4508;SDS011;2267;48.816;9.230;2022-10-31T12:15:56;8.33;;;6.40;;
4508;SDS011;2267;48.816;9.230;2022-10-31T12:19:00;7.67;;;5.70;;
4508;SDS011;2267;48.816;9.230;2022-10-31T12:21:32;10.10;;;5.50;;
4508;SDS011;2267;48.816;9.230;2022-10-31T12:49:44;9.10;;;6.50;;
4508;SDS011;2267;48.816;9.230;2022-10-31T12:57:37;11.20;;;6.33;;
4508;SDS011;2267;48.816;9.230;2022-10-31T13:00:15;8.00;;;5.60;;
4508;SDS011;2267;48.816;9.230;2022-10-31T13:05:29;12.67;;;7.00;;
4508;SDS011;2267;48.816;9.230;2022-10-31T13:13:19;8.83;;;6.53;;
4508;SDS011;2267;48.816;9.230;2022-10-31T13:15:51;10.23;;;7.73;;
4508;SDS011;2267;48.816;9.230;2022-10-31T13:18:25;7.60;;;6.70;;
4508;SDS011;2267;48.816;9.230;2022-10-31T13:21:07;10.50;;;7.60;;
4508;SDS011;2267;48.816;9.230;2022-10-31T13:23:38;9.63;;;7.37;;
4508;SDS011;2267;48.816;9.230;2022-10-31T13:26:23;11.80;;;7.67;;
4508;SDS011;2267;48.816;9.230;2022-10-31T13:32:10;10.30;;;9.30;;
4508;SDS011;2267;48.816;9.230;2022-10-31T13:34:39;12.40;;;11.20;;
4508;SDS011;2267;48.816;9.230;2022-10-31T13:45:27;10.13;;;6.90;;
4508;SDS011;2267;48.816;9.230;2022-10-31T13:48:17;11.40;;;6.57;;
4508;SDS011;2267;48.816;9.230;2022-10-31T13:50:57;8.40;;;7.47;;
4508;SDS011;2267;48.816;9.230;2022-10-31T13:56:30;12.83;;;8.20;;
4508;SDS011;2267;48.816;9.230;2022-10-31T14:01:47;7.13;;;6.17;;
4508;SDS011;2267;48.816;9.230;2022-10-31T14:04:21;8.53;;;6.83;;
4508;SDS011;2267;48.816;9.230;2022-10-31T14:06:56;13.70;;;7.63;;
4508;SDS011;2267;48.816;9.230;2022-10-31T14:09:27;12.90;;;7.00;;
4508;SDS011;2267;48.816;9.230;2022-10-31T14:12:12;8.37;;;7.17;;
4508;SDS011;2267;48.816;9.230;2022-10-31T14:14:50;8.50;;;6.33;;
4508;SDS011;2267;48.816;9.230;2022-10-31T14:17:24;9.40;;;6.83;;
4508;SDS011;2267;48.816;9.230;2022-10-31T14:20:03;6.63;;;6.03;;
4508;SDS011;2267;48.816;9.230;2022-10-31T14:22:48;10.00;;;6.00;;
4508;SDS011;2267;48.816;9.230;2022-10-31T14:25:29;10.40;;;6.90;;
4508;SDS011;2267;48.816;9.230;2022-10-31T14:28:17;8.77;;;7.03;;
4508;SDS011;2267;48.816;9.230;2022-10-31T14:30:53;11.13;;;6.67;;
4508;SDS011;2267;48.816;9.230;2022-10-31T14:33:22;9.50;;;6.67;;
4508;SDS011;2267;48.816;9.230;2022-10-31T14:35:54;7.83;;;5.93;;
4508;SDS011;2267;48.816;9.230;2022-10-31T14:41:22;8.30;;;6.23;;
4508;SDS011;2267;48.816;9.230;2022-10-31T14:46:50;14.50;;;8.87;;
4508;SDS011;2267;48.816;9.230;2022-10-31T14:52:14;19.07;;;8.90;;
4508;SDS011;2267;48.816;9.230;2022-10-31T14:54:44;12.37;;;8.27;;
4508;SDS011;2267;48.816;9.230;2022-10-31T14:57:18;9.23;;;8.27;;
4508;SDS011;2267;48.816;9.230;2022-10-31T14:59:50;10.43;;;8.70;;
4508;SDS011;2267;48.816;9.230;2022-10-31T15:05:09;11.03;;;8.93;;
4508;SDS011;2267;48.816;9.230;2022-10-31T15:07:47;12.70;;;8.50;;
4508;SDS011;2267;48.816;9.230;2022-10-31T15:10:19;14.53;;;8.80;;
4508;SDS011;2267;48.816;9.230;2022-10-31T15:13:40;11.40;;;9.63;;
4508;SDS011;2267;48.816;9.230;2022-10-31T15:15:51;14.37;;;8.70;;
4508;SDS011;2267;48.816;9.230;2022-10-31T15:18:23;15.50;;;10.20;;
4508;SDS011;2267;48.816;9.230;2022-10-31T15:20:52;14.83;;;8.80;;
4508;SDS011;2267;48.816;9.230;2022-10-31T15:23:39;9.07;;;8.17;;
4508;SDS011;2267;48.816;9.230;2022-10-31T15:26:05;11.97;;;8.60;;
4508;SDS011;2267;48.816;9.230;2022-10-31T15:28:32;11.63;;;8.90;;
4508;SDS011;2267;48.816;9.230;2022-10-31T15:31:00;14.77;;;8.70;;
4508;SDS011;2267;48.816;9.230;2022-10-31T15:33:29;12.57;;;8.80;;
4508;SDS011;2267;48.816;9.230;2022-10-31T15:36:20;13.90;;;9.53;;
4508;SDS011;2267;48.816;9.230;2022-10-31T15:38:57;17.80;;;9.70;;
4508;SDS011;2267;48.816;9.230;2022-10-31T15:41:29;11.47;;;8.37;;
4508;SDS011;2267;48.816;9.230;2022-10-31T15:44:44;13.40;;;8.30;;
4508;SDS011;2267;48.816;9.230;2022-10-31T15:47:03;10.37;;;8.00;;
4508;SDS011;2267;48.816;9.230;2022-10-31T15:54:42;11.30;;;9.20;;
4508;SDS011;2267;48.816;9.230;2022-10-31T15:57:19;11.67;;;9.30;;
4508;SDS011;2267;48.816;9.230;2022-10-31T15:59:47;12.33;;;10.00;;
4508;SDS011;2267;48.816;9.230;2022-10-31T16:02:17;15.43;;;9.60;;
4508;SDS011;2267;48.816;9.230;2022-10-31T16:04:51;10.50;;;9.53;;
4508;SDS011;2267;48.816;9.230;2022-10-31T16:07:23;11.33;;;9.57;;
4508;SDS011;2267;48.816;9.230;2022-10-31T16:10:01;16.50;;;10.60;;
4508;SDS011;2267;48.816;9.230;2022-10-31T16:12:32;15.50;;;11.30;;
4508;SDS011;2267;48.816;9.230;2022-10-31T16:15:03;19.97;;;11.60;;
4508;SDS011;2267;48.816;9.230;2022-10-31T16:17:32;13.40;;;11.30;;
4508;SDS011;2267;48.816;9.230;2022-10-31T16:20:00;13.70;;;12.00;;
4508;SDS011;2267;48.816;9.230;2022-10-31T16:22:31;15.33;;;11.50;;
4508;SDS011;2267;48.816;9.230;2022-10-31T16:25:02;17.63;;;11.57;;
4508;SDS011;2267;48.816;9.230;2022-10-31T16:27:37;13.30;;;11.27;;
4508;SDS011;2267;48.816;9.230;2022-10-31T16:39:01;19.67;;;12.30;;
4508;SDS011;2267;48.816;9.230;2022-10-31T16:41:28;12.73;;;11.20;;
4508;SDS011;2267;48.816;9.230;2022-10-31T16:43:56;14.53;;;12.37;;
4508;SDS011;2267;48.816;9.230;2022-10-31T16:46:25;15.13;;;13.53;;
4508;SDS011;2267;48.816;9.230;2022-10-31T16:48:53;16.60;;;13.43;;
4508;SDS011;2267;48.816;9.230;2022-10-31T16:51:21;16.63;;;14.07;;
4508;SDS011;2267;48.816;9.230;2022-10-31T16:53:50;18.20;;;15.73;;
4508;SDS011;2267;48.816;9.230;2022-10-31T16:56:22;16.07;;;14.40;;
4508;SDS011;2267;48.816;9.230;2022-10-31T16:58:53;29.37;;;26.77;;
4508;SDS011;2267;48.816;9.230;2022-10-31T17:01:20;34.33;;;31.00;;
4508;SDS011;2267;48.816;9.230;2022-10-31T17:03:47;35.27;;;22.97;;
4508;SDS011;2267;48.816;9.230;2022-10-31T17:06:14;27.97;;;25.10;;
4508;SDS011;2267;48.816;9.230;2022-10-31T17:08:41;26.80;;;24.40;;
4508;SDS011;2267;48.816;9.230;2022-10-31T17:11:08;27.73;;;24.93;;
4508;SDS011;2267;48.816;9.230;2022-10-31T17:13:42;27.50;;;19.97;;
4508;SDS011;2267;48.816;9.230;2022-10-31T17:16:09;24.30;;;18.33;;
4508;SDS011;2267;48.816;9.230;2022-10-31T17:18:38;19.00;;;15.47;;
4508;SDS011;2267;48.816;9.230;2022-10-31T17:21:05;20.57;;;18.47;;
4508;SDS011;2267;48.816;9.230;2022-10-31T17:23:32;19.80;;;17.90;;
4508;SDS011;2267;48.816;9.230;2022-10-31T17:25:58;28.67;;;26.03;;
4508;SDS011;2267;48.816;9.230;2022-10-31T17:28:25;26.87;;;23.53;;
4508;SDS011;2267;48.816;9.230;2022-10-31T17:30:55;23.50;;;21.03;;
4508;SDS011;2267;48.816;9.230;2022-10-31T17:33:24;18.80;;;17.00;;
4508;SDS011;2267;48.816;9.230;2022-10-31T17:35:51;23.17;;;19.50;;
4508;SDS011;2267;48.816;9.230;2022-10-31T17:38:18;21.10;;;19.07;;
4508;SDS011;2267;48.816;9.230;2022-10-31T17:40:44;21.73;;;19.40;;
4508;SDS011;2267;48.816;9.230;2022-10-31T17:43:17;21.70;;;18.53;;
4508;SDS011;2267;48.816;9.230;2022-10-31T17:45:44;18.73;;;16.83;;
4508;SDS011;2267;48.816;9.230;2022-10-31T17:48:11;40.20;;;36.63;;
4508;SDS011;2267;48.816;9.230;2022-10-31T17:50:38;46.60;;;42.70;;
4508;SDS011;2267;48.816;9.230;2022-10-31T17:53:05;36.60;;;33.77;;
4508;SDS011;2267;48.816;9.230;2022-10-31T17:55:32;58.03;;;53.43;;